Time;durP1;ratioP1;P1;durP2;ratioP2;P2;SDS_P1;SDS_P2;PMS_P1;PMS_P2;Temp;Humidity;BMP_temperature;BMP_pressure;BME280_temperature;BME280_humidity;BME280_pressure;Samples;Min_cycle;Max_cycle;Signal;HPM_P1;HPM_P2
2022/04/09 00:00:28;;;;;;;9.25;2.65;;;4.00;99.90;;;;;;4960685;28;20501;-61
2022/04/09 00:02:53;;;;;;;14.48;3.00;;;4.00;99.90;;;;;;4956251;28;20519;-62
2022/04/09 00:05:19;;;;;;;10.80;3.30;;;4.00;99.90;;;;;;4955209;28;20035;-60
2022/04/09 00:07:45;;;;;;;15.32;3.83;;;4.00;99.90;;;;;;4955918;28;20039;-61
2022/04/09 00:10:11;;;;;;;12.68;3.28;;;4.00;99.90;;;;;;4956376;28;20041;-60
2022/04/09 00:12:38;;;;;;;9.63;2.67;;;4.00;99.90;;;;;;4956787;28;20403;-61
2022/04/09 00:15:05;;;;;;;10.68;2.90;;;4.00;99.90;;;;;;4965624;28;20489;-62
2022/04/09 00:17:38;;;;;;;12.98;3.30;;;4.00;99.90;;;;;;4956011;28;20054;-61
2022/04/09 00:20:05;;;;;;;18.52;3.47;;;4.00;99.90;;;;;;4956730;29;20050;-62
2022/04/09 00:22:31;;;;;;;12.98;3.00;;;4.10;99.90;;;;;;4953971;28;20060;-61
2022/04/09 00:24:57;;;;;;;16.65;3.33;;;4.10;99.90;;;;;;4938681;28;20070;-60
2022/04/09 00:27:22;;;;;;;14.43;2.90;;;4.10;99.90;;;;;;4938734;29;20075;-61
2022/04/09 00:29:48;;;;;;;13.43;3.55;;;4.10;99.90;;;;;;4956481;28;20039;-61
2022/04/09 00:32:13;;;;;;;14.77;3.58;;;4.10;99.90;;;;;;4955735;28;20047;-61
2022/04/09 00:34:39;;;;;;;14.75;3.83;;;4.20;99.90;;;;;;4955553;28;20039;-61
2022/04/09 00:37:04;;;;;;;12.30;4.00;;;4.30;99.90;;;;;;4954750;28;20035;-62
2022/04/09 00:39:30;;;;;;;13.10;3.00;;;4.30;99.90;;;;;;4955458;28;20070;-61
2022/04/09 00:41:55;;;;;;;10.82;2.92;;;4.20;99.90;;;;;;4955674;28;20509;-61
2022/04/09 00:44:21;;;;;;;11.90;3.22;;;4.30;99.90;;;;;;4955736;29;20402;-61
2022/04/09 00:46:47;;;;;;;15.40;3.45;;;4.20;99.90;;;;;;4955738;28;20043;-63
2022/04/09 00:49:13;;;;;;;14.90;3.20;;;4.20;99.90;;;;;;4955728;28;20401;-64
2022/04/09 00:51:44;;;;;;;12.80;3.17;;;4.10;99.90;;;;;;4955724;28;20054;-61
2022/04/09 00:54:14;;;;;;;12.93;2.97;;;4.20;99.90;;;;;;4957175;28;20101;-61
2022/04/09 00:56:41;;;;;;;15.95;3.13;;;4.10;99.90;;;;;;4955548;28;20457;-61
2022/04/09 00:59:11;;;;;;;13.63;3.10;;;4.00;99.90;;;;;;4955513;28;20051;-61
2022/04/09 01:01:39;;;;;;;9.10;2.53;;;4.00;99.90;;;;;;4955893;29;20273;-60
2022/04/09 01:04:07;;;;;;;7.00;2.42;;;4.00;99.90;;;;;;4962380;28;20039;-61
2022/04/09 01:06:34;;;;;;;8.63;3.05;;;4.10;99.90;;;;;;4955210;28;20035;-61
2022/04/09 01:08:59;;;;;;;14.07;3.70;;;4.10;99.90;;;;;;4955515;28;20032;-61
2022/04/09 01:11:25;;;;;;;11.35;2.78;;;4.20;99.90;;;;;;4957321;28;20070;-64
2022/04/09 01:13:51;;;;;;;12.05;3.50;;;4.20;99.90;;;;;;4955663;28;20043;-60
2022/04/09 01:16:17;;;;;;;11.52;3.08;;;4.20;99.90;;;;;;4938242;29;20098;-61
2022/04/09 01:18:43;;;;;;;16.48;4.32;;;4.20;99.90;;;;;;4955230;29;20047;-60
2022/04/09 01:21:09;;;;;;;10.02;3.30;;;4.30;99.90;;;;;;4963649;28;20039;-61
2022/04/09 01:23:35;;;;;;;13.52;3.20;;;4.30;99.90;;;;;;4958329;28;20397;-61
2022/04/09 01:26:02;;;;;;;13.77;3.08;;;4.30;99.90;;;;;;4955103;29;20087;-63
2022/04/09 01:28:28;;;;;;;11.75;3.45;;;4.30;99.90;;;;;;4954661;28;20043;-61
2022/04/09 01:30:54;;;;;;;11.82;3.10;;;4.30;99.90;;;;;;4937913;28;20058;-61
2022/04/09 01:33:21;;;;;;;12.43;3.47;;;4.30;99.90;;;;;;4954665;28;20031;-62
2022/04/09 01:35:48;;;;;;;8.45;3.10;;;4.40;99.90;;;;;;4953039;28;20070;-61
2022/04/09 01:38:14;;;;;;;12.40;2.70;;;4.30;99.90;;;;;;4937672;28;20061;-60
2022/04/09 01:40:40;;;;;;;7.63;2.40;;;4.20;99.90;;;;;;4954940;28;20040;-64
2022/04/09 01:43:06;;;;;;;12.70;2.75;;;4.20;99.90;;;;;;4974095;28;20049;-61
2022/04/09 01:45:32;;;;;;;11.02;2.58;;;4.20;99.90;;;;;;4965681;28;20031;-63
2022/04/09 01:47:58;;;;;;;11.80;2.95;;;4.20;99.90;;;;;;4954052;28;20410;-64
2022/04/09 01:50:26;;;;;;;8.85;2.70;;;4.20;99.90;;;;;;4937313;29;20039;-63
2022/04/09 01:52:52;;;;;;;10.30;2.60;;;4.20;99.90;;;;;;4952981;28;20047;-61
2022/04/09 01:55:18;;;;;;;11.68;2.67;;;4.20;99.90;;;;;;4942102;29;20043;-63
2022/04/09 01:57:45;;;;;;;7.88;2.65;;;4.20;99.90;;;;;;4954385;28;20047;-61
2022/04/09 02:00:12;;;;;;;6.60;2.38;;;4.10;99.90;;;;;;4954816;29;20062;-62
2022/04/09 02:02:38;;;;;;;11.25;3.05;;;4.10;99.90;;;;;;4955511;28;20167;-61
2022/04/09 02:05:06;;;;;;;9.70;2.72;;;4.10;99.90;;;;;;4956390;28;20062;-61
2022/04/09 02:07:31;;;;;;;8.95;2.63;;;4.00;99.90;;;;;;4954145;28;20402;-61
2022/04/09 02:09:57;;;;;;;18.35;2.90;;;4.00;99.90;;;;;;4955589;28;20046;-62
2022/04/09 02:12:22;;;;;;;12.50;3.05;;;3.90;99.90;;;;;;4954034;28;20545;-62
2022/04/09 02:14:48;;;;;;;9.15;2.58;;;4.00;99.90;;;;;;4954114;28;20039;-61
2022/04/09 02:17:14;;;;;;;10.00;2.47;;;4.00;99.90;;;;;;4954264;29;20042;-61
2022/04/09 02:19:39;;;;;;;11.52;2.55;;;4.00;99.90;;;;;;4958199;28;20034;-61
2022/04/09 02:22:05;;;;;;;10.40;2.88;;;4.00;99.90;;;;;;4967705;28;20114;-66
2022/04/09 02:24:31;;;;;;;12.48;2.80;;;3.90;99.90;;;;;;4953554;28;20093;-63
2022/04/09 02:26:57;;;;;;;8.25;2.45;;;3.90;99.90;;;;;;4957753;28;20474;-62
2022/04/09 02:29:23;;;;;;;8.15;2.45;;;3.90;99.90;;;;;;4953943;28;20035;-60
2022/04/09 02:31:49;;;;;;;7.20;2.10;;;3.80;99.90;;;;;;4953913;28;20085;-61
2022/04/09 02:34:15;;;;;;;8.80;2.15;;;3.70;99.90;;;;;;4956422;28;20117;-61
2022/04/09 02:36:41;;;;;;;9.68;3.08;;;3.80;99.90;;;;;;4957354;28;20399;-60
2022/04/09 02:39:06;;;;;;;7.43;2.00;;;3.70;99.90;;;;;;4936424;29;20442;-60
2022/04/09 02:41:32;;;;;;;7.25;1.98;;;3.70;99.90;;;;;;4954116;29;20043;-62
2022/04/09 02:43:57;;;;;;;4.55;1.80;;;3.70;99.90;;;;;;4952532;28;20090;-63
2022/04/09 02:46:24;;;;;;;6.95;2.30;;;3.70;99.90;;;;;;4953527;28;20027;-61
2022/04/09 02:48:50;;;;;;;11.13;2.72;;;3.80;99.90;;;;;;4953848;28;20464;-61
2022/04/09 02:51:16;;;;;;;8.63;2.50;;;3.80;99.90;;;;;;4951187;28;20498;-63
2022/04/09 02:53:42;;;;;;;8.32;2.25;;;3.80;99.90;;;;;;4952586;28;20148;-62
2022/04/09 02:56:07;;;;;;;13.30;3.15;;;3.70;99.90;;;;;;4953447;28;20082;-61
2022/04/09 02:58:33;;;;;;;15.13;2.20;;;3.70;99.90;;;;;;4936885;29;20057;-61
2022/04/09 03:00:59;;;;;;;8.25;2.45;;;3.70;99.90;;;;;;4950759;28;20039;-61
2022/04/09 03:03:24;;;;;;;9.52;2.40;;;3.70;99.90;;;;;;4935851;29;20046;-62
2022/04/09 03:05:50;;;;;;;8.60;2.20;;;3.70;99.90;;;;;;4953539;28;20047;-63
2022/04/09 03:08:16;;;;;;;7.63;2.38;;;3.70;99.90;;;;;;4950783;28;20584;-61
2022/04/09 03:10:41;;;;;;;8.35;2.92;;;3.80;99.90;;;;;;4960420;28;20039;-61
2022/04/09 03:13:07;;;;;;;8.25;2.15;;;3.90;99.90;;;;;;4953118;28;20043;-60
2022/04/09 03:15:33;;;;;;;8.30;2.28;;;3.90;99.90;;;;;;4934723;28;20051;-66
2022/04/09 03:17:59;;;;;;;15.70;2.40;;;3.90;99.90;;;;;;4952018;28;20406;-63
2022/04/09 03:20:24;;;;;;;7.00;2.17;;;3.90;99.90;;;;;;4936007;29;20123;-61
2022/04/09 03:22:50;;;;;;;7.95;2.10;;;3.90;99.90;;;;;;4952931;28;20647;-61
2022/04/09 03:25:16;;;;;;;9.93;2.20;;;3.90;99.90;;;;;;4939378;28;20466;-61
2022/04/09 03:27:42;;;;;;;6.85;2.40;;;3.80;99.90;;;;;;4959230;28;20098;-61
2022/04/09 03:30:08;;;;;;;9.40;2.10;;;3.90;99.90;;;;;;4953284;28;20051;-61
2022/04/09 03:32:38;;;;;;;8.35;2.25;;;3.90;99.90;;;;;;4933934;28;20489;-61
2022/04/09 03:35:07;;;;;;;10.15;2.33;;;4.00;99.90;;;;;;4940456;29;20043;-61
2022/04/09 03:37:40;;;;;;;11.93;2.00;;;4.00;99.90;;;;;;4952677;28;20117;-61
2022/04/09 03:40:07;;;;;;;7.63;2.03;;;4.00;99.90;;;;;;4953334;29;20387;-63
2022/04/09 03:42:32;;;;;;;6.85;2.30;;;4.10;99.90;;;;;;4952808;28;20058;-60
2022/04/09 03:44:59;;;;;;;8.95;2.33;;;4.00;99.90;;;;;;4950672;28;20063;-61
2022/04/09 03:47:24;;;;;;;6.53;1.67;;;4.00;99.90;;;;;;4957658;28;20394;-61
2022/04/09 03:49:50;;;;;;;5.00;1.65;;;4.00;99.90;;;;;;4933801;28;20474;-62
2022/04/09 03:52:15;;;;;;;7.78;1.80;;;3.90;99.90;;;;;;4952605;28;20043;-64
2022/04/09 03:54:41;;;;;;;6.10;1.85;;;3.90;99.90;;;;;;4960716;28;20122;-61
2022/04/09 03:57:09;;;;;;;6.60;2.15;;;3.90;99.90;;;;;;4935726;28;20528;-61
2022/04/09 03:59:35;;;;;;;10.98;2.42;;;3.90;99.90;;;;;;4962184;28;20035;-61
2022/04/09 04:02:00;;;;;;;6.18;2.10;;;4.00;99.90;;;;;;4935932;29;20466;-61
2022/04/09 04:04:26;;;;;;;6.97;2.10;;;4.00;99.90;;;;;;4952648;29;20050;-63
2022/04/09 04:06:52;;;;;;;5.80;1.98;;;4.00;99.90;;;;;;4947519;28;20039;-64
2022/04/09 04:09:17;;;;;;;4.85;2.10;;;3.90;99.90;;;;;;4952526;28;20039;-61
2022/04/09 04:11:44;;;;;;;6.65;1.88;;;3.90;99.90;;;;;;4952319;28;20035;-62
2022/04/09 04:14:10;;;;;;;6.75;1.83;;;3.80;99.90;;;;;;4950555;28;20134;-61
2022/04/09 04:16:36;;;;;;;5.70;1.90;;;3.80;99.90;;;;;;4934665;28;20131;-67
2022/04/09 04:24:10;;;;;;;9.50;2.33;;;3.80;99.90;;;;;;4945913;29;20043;-62
2022/04/09 04:26:36;;;;;;;4.88;1.80;;;3.70;99.90;;;;;;4944472;29;20038;-61
2022/04/09 04:29:02;;;;;;;5.65;2.22;;;3.80;99.90;;;;;;4926494;29;20057;-62
2022/04/09 04:31:28;;;;;;;8.55;2.28;;;3.70;99.90;;;;;;4935744;29;20062;-62
2022/04/09 04:33:53;;;;;;;10.07;2.28;;;3.70;99.90;;;;;;4935239;29;20202;-61
2022/04/09 04:36:19;;;;;;;5.13;1.90;;;3.60;99.90;;;;;;4923595;29;20040;-62
2022/04/09 04:44:01;;;;;;;8.55;2.63;;;3.30;99.90;;;;;;5040027;23;20066;-61
2022/04/09 04:46:27;;;;;;;7.38;2.00;;;3.30;99.90;;;;;;4965690;28;20409;-61
2022/04/09 04:48:52;;;;;;;8.43;2.40;;;3.20;99.90;;;;;;4959324;28;20536;-62
2022/04/09 04:51:18;;;;;;;9.30;2.65;;;3.20;99.90;;;;;;4932815;29;20421;-61
2022/04/09 04:56:28;;;;;;;8.52;2.28;;;3.20;99.90;;;;;;5006049;23;20047;-62
2022/04/09 04:58:53;;;;;;;9.80;2.50;;;3.20;99.90;;;;;;4927674;28;20050;-62
2022/04/09 05:01:19;;;;;;;9.15;2.30;;;3.20;99.90;;;;;;4945030;28;20445;-62
2022/04/09 05:06:40;;;;;;;7.97;2.35;;;3.20;99.90;;;;;;5393848;23;20098;-61
2022/04/09 05:09:05;;;;;;;9.68;2.13;;;3.20;99.90;;;;;;4981329;23;20046;-65
2022/04/09 05:11:31;;;;;;;14.25;3.45;;;3.30;99.90;;;;;;4973576;28;20034;-61
2022/04/09 05:13:56;;;;;;;7.60;2.47;;;3.40;99.90;;;;;;4962507;28;20381;-61
2022/04/09 05:16:22;;;;;;;6.68;2.50;;;3.50;99.90;;;;;;4972029;28;20511;-61
2022/04/09 05:18:47;;;;;;;10.88;3.15;;;3.60;99.90;;;;;;4974198;28;20041;-65
2022/04/09 05:21:13;;;;;;;12.05;2.40;;;3.70;99.90;;;;;;4951823;28;20048;-60
2022/04/09 05:23:39;;;;;;;11.35;2.78;;;3.90;99.90;;;;;;4944946;29;20039;-62
2022/04/09 05:26:04;;;;;;;9.23;2.22;;;4.00;99.90;;;;;;4943871;28;20048;-61
2022/04/09 05:28:30;;;;;;;9.93;2.20;;;4.10;99.90;;;;;;4944419;29;20043;-63
2022/04/09 05:30:55;;;;;;;5.65;2.35;;;4.20;99.90;;;;;;4939104;28;20047;-66
2022/04/09 05:33:21;;;;;;;7.95;2.20;;;4.20;99.90;;;;;;4945069;28;20046;-61
2022/04/09 05:35:47;;;;;;;11.30;2.38;;;4.20;99.90;;;;;;4957861;28;20041;-61
2022/04/09 05:38:12;;;;;;;8.75;2.10;;;4.20;99.90;;;;;;4969680;28;20420;-64
2022/04/09 05:40:39;;;;;;;9.93;2.45;;;4.20;99.90;;;;;;4942481;28;20044;-60
2022/04/09 05:43:05;;;;;;;8.63;2.38;;;4.20;99.90;;;;;;4944141;28;20043;-62
2022/04/09 05:45:30;;;;;;;6.07;2.05;;;4.20;99.90;;;;;;4936726;28;20043;-69
2022/04/09 05:47:56;;;;;;;6.38;2.03;;;4.20;99.90;;;;;;4939497;29;20050;-64
2022/04/09 05:50:22;;;;;;;6.47;2.10;;;4.20;99.90;;;;;;4945658;29;20047;-61
2022/04/09 05:52:50;;;;;;;4.68;1.90;;;4.30;99.90;;;;;;4950221;28;20047;-63
2022/04/09 05:55:17;;;;;;;5.45;2.05;;;4.40;99.90;;;;;;4947032;28;20557;-60
2022/04/09 05:57:43;;;;;;;11.75;2.10;;;4.40;99.90;;;;;;4946562;29;20051;-60
2022/04/09 06:00:10;;;;;;;7.03;2.03;;;4.50;99.90;;;;;;4950930;28;20070;-61
2022/04/09 06:02:37;;;;;;;9.18;2.25;;;4.60;99.90;;;;;;4944756;28;20043;-68
2022/04/09 06:05:03;;;;;;;6.63;2.58;;;4.80;99.90;;;;;;4954441;28;20058;-66
2022/04/09 06:07:30;;;;;;;7.80;2.40;;;4.90;99.90;;;;;;4949897;28;20181;-65
2022/04/09 06:09:56;;;;;;;10.05;2.50;;;5.10;99.90;;;;;;4940054;28;20779;-65
2022/04/09 06:12:22;;;;;;;6.75;2.70;;;5.20;99.90;;;;;;4939709;29;20054;-61
2022/04/09 06:14:47;;;;;;;7.40;3.00;;;5.50;99.90;;;;;;4950165;28;20070;-63
2022/04/09 06:17:13;;;;;;;8.52;2.42;;;5.50;99.90;;;;;;4951012;28;20035;-61
2022/04/09 06:19:38;;;;;;;6.88;2.00;;;5.50;99.90;;;;;;4942554;28;20379;-61
2022/04/09 06:22:04;;;;;;;10.45;2.58;;;5.40;99.90;;;;;;4939789;28;20042;-61
2022/04/09 06:24:29;;;;;;;7.45;2.20;;;5.30;99.90;;;;;;4949861;29;20449;-64
2022/04/09 06:26:55;;;;;;;11.55;2.47;;;5.20;99.90;;;;;;4950679;28;20058;-61
2022/04/09 06:29:21;;;;;;;10.20;2.83;;;5.10;99.90;;;;;;4945483;28;20055;-61
2022/04/09 06:31:47;;;;;;;9.57;2.65;;;5.10;99.90;;;;;;4949744;29;20055;-62
2022/04/09 06:34:16;;;;;;;13.98;2.40;;;5.20;99.90;;;;;;4950030;28;20413;-63
2022/04/09 06:36:42;;;;;;;9.02;2.30;;;5.20;99.90;;;;;;4939475;28;20514;-62
2022/04/09 06:39:08;;;;;;;11.77;2.70;;;5.40;99.90;;;;;;4942323;28;20085;-65
2022/04/09 06:41:35;;;;;;;11.93;2.65;;;5.60;99.90;;;;;;4950473;28;20561;-61
2022/04/09 06:44:01;;;;;;;9.13;2.63;;;5.70;99.90;;;;;;4942311;28;20074;-66
2022/04/09 06:46:26;;;;;;;10.27;2.90;;;5.70;99.90;;;;;;4937703;28;20047;-64
2022/04/09 06:48:52;;;;;;;12.70;3.20;;;5.80;99.90;;;;;;4948627;29;20054;-64
2022/04/09 06:51:18;;;;;;;10.10;2.92;;;5.90;99.90;;;;;;4950051;28;20039;-63
2022/04/09 06:53:44;;;;;;;13.45;2.97;;;5.80;99.90;;;;;;4936859;28;20651;-63
2022/04/09 06:56:09;;;;;;;11.57;2.50;;;5.90;99.90;;;;;;4947216;28;20039;-63
2022/04/09 06:58:35;;;;;;;8.52;2.55;;;6.00;99.90;;;;;;4949241;28;20616;-63
2022/04/09 07:01:01;;;;;;;15.80;4.03;;;6.00;99.90;;;;;;4941535;28;20135;-63
2022/04/09 07:03:27;;;;;;;10.40;2.22;;;6.10;99.90;;;;;;4940225;29;20437;-63
2022/04/09 07:05:53;;;;;;;11.82;2.75;;;6.20;99.90;;;;;;4949650;28;20544;-64
2022/04/09 07:08:19;;;;;;;8.43;2.00;;;6.30;99.90;;;;;;4949673;28;20046;-63
2022/04/09 07:10:45;;;;;;;9.32;2.00;;;6.40;99.90;;;;;;4932751;28;20051;-63
2022/04/09 07:13:11;;;;;;;7.90;2.40;;;6.50;99.90;;;;;;4948790;28;20075;-63
2022/04/09 07:15:36;;;;;;;10.88;2.50;;;6.70;99.90;;;;;;4949852;28;20418;-63
2022/04/09 07:18:02;;;;;;;7.80;1.92;;;6.90;99.90;;;;;;4950072;29;20084;-63
2022/04/09 07:20:29;;;;;;;5.50;2.05;;;6.90;99.90;;;;;;4940060;28;20035;-63
2022/04/09 07:22:55;;;;;;;6.72;1.80;;;7.00;99.90;;;;;;4948230;29;20043;-63
2022/04/09 07:25:21;;;;;;;11.95;2.20;;;7.20;99.90;;;;;;4949737;28;20035;-63
2022/04/09 07:27:47;;;;;;;11.95;2.45;;;7.10;99.90;;;;;;4945629;28;20166;-63
2022/04/09 07:30:18;;;;;;;9.77;2.20;;;7.10;99.90;;;;;;4948888;28;20082;-63
2022/04/09 07:32:45;;;;;;;13.10;2.83;;;7.10;99.90;;;;;;4946375;29;20066;-63
2022/04/09 07:35:12;;;;;;;10.32;2.33;;;7.10;99.90;;;;;;4943115;28;20058;-63
2022/04/09 07:37:55;;;;;;;11.40;2.10;;;7.00;99.90;;;;;;4948609;28;20712;-62
2022/04/09 07:40:24;;;;;;;10.77;2.42;;;7.00;99.90;;;;;;4949304;28;20134;-63
2022/04/09 07:42:51;;;;;;;9.07;1.80;;;6.90;99.90;;;;;;4931469;28;20043;-63
2022/04/09 07:45:17;;;;;;;7.97;1.90;;;6.90;99.90;;;;;;4940413;29;20051;-63
2022/04/09 07:47:43;;;;;;;11.73;2.03;;;6.90;99.90;;;;;;4930668;28;20452;-63
2022/04/09 07:50:11;;;;;;;12.90;2.65;;;7.00;99.90;;;;;;4942668;29;20101;-63
2022/04/09 07:52:42;;;;;;;11.82;2.88;;;7.00;99.90;;;;;;4940418;28;20047;-63
2022/04/09 07:55:16;;;;;;;9.88;2.13;;;7.10;99.90;;;;;;4946881;28;20039;-63
2022/04/09 07:57:47;;;;;;;12.60;2.63;;;7.10;99.90;;;;;;4952957;28;20497;-63
2022/04/09 08:00:14;;;;;;;9.40;2.38;;;7.30;99.90;;;;;;4943277;28;20094;-63
2022/04/09 08:02:40;;;;;;;8.60;2.92;;;7.50;99.90;;;;;;4947189;29;20449;-63
2022/04/09 08:05:07;;;;;;;8.60;2.40;;;7.60;99.90;;;;;;4952621;28;20054;-63
2022/04/09 08:07:33;;;;;;;10.77;2.22;;;7.70;99.90;;;;;;4953041;28;20407;-63
2022/04/09 08:09:58;;;;;;;10.65;2.80;;;7.70;99.90;;;;;;4939326;28;20501;-63
2022/04/09 08:12:24;;;;;;;6.88;2.10;;;7.70;99.90;;;;;;4951887;29;20465;-64
2022/04/09 08:14:49;;;;;;;11.15;2.30;;;7.70;99.90;;;;;;4952198;28;20050;-63
2022/04/09 08:17:18;;;;;;;6.38;2.15;;;7.80;99.90;;;;;;4946336;28;20035;-63
2022/04/09 08:19:43;;;;;;;9.13;2.13;;;7.80;99.90;;;;;;4946839;29;20082;-63
2022/04/09 08:22:09;;;;;;;6.18;1.92;;;7.70;99.90;;;;;;4952708;29;20039;-63
2022/04/09 08:24:35;;;;;;;6.88;1.40;;;7.80;99.90;;;;;;4950905;29;20761;-63
2022/04/09 08:27:00;;;;;;;12.60;2.00;;;7.90;99.90;;;;;;4945375;28;20066;-63
2022/04/09 08:29:26;;;;;;;8.18;1.55;;;8.00;99.90;;;;;;4952216;28;20039;-63
2022/04/09 08:31:52;;;;;;;8.52;1.80;;;8.10;99.90;;;;;;4951609;28;20047;-63
2022/04/09 08:34:19;;;;;;;9.18;1.90;;;8.10;99.90;;;;;;4948880;28;20529;-63
2022/04/09 08:36:46;;;;;;;8.05;1.55;;;8.20;99.90;;;;;;4950252;29;20054;-63
2022/04/09 08:39:12;;;;;;;6.07;1.85;;;8.30;99.90;;;;;;4952354;28;20081;-63
2022/04/09 08:41:40;;;;;;;2.25;1.02;;;8.30;99.90;;;;;;4948327;28;20036;-64
2022/04/09 08:44:07;;;;;;;5.68;1.75;;;8.30;99.90;;;;;;4939652;28;20055;-63
2022/04/09 08:46:34;;;;;;;5.82;1.40;;;8.30;99.90;;;;;;4952572;28;20085;-63
2022/04/09 08:49:03;;;;;;;7.95;2.00;;;8.40;99.90;;;;;;4950004;28;20869;-63
2022/04/09 08:51:28;;;;;;;4.25;1.60;;;8.60;99.90;;;;;;4938782;29;20414;-63
2022/04/09 08:53:55;;;;;;;7.68;1.63;;;8.50;99.90;;;;;;4951052;29;20101;-64
2022/04/09 08:56:21;;;;;;;7.63;1.52;;;8.60;99.90;;;;;;4951030;29;20051;-64
2022/04/09 08:58:47;;;;;;;7.57;1.48;;;8.50;99.90;;;;;;4938873;28;20438;-63
2022/04/09 09:01:12;;;;;;;4.07;1.30;;;8.60;99.90;;;;;;4949327;28;20122;-63
2022/04/09 09:03:38;;;;;;;7.70;1.60;;;8.90;99.90;;;;;;4951652;28;20039;-63
2022/04/09 09:06:35;;;;;;;8.13;1.90;;;8.90;99.90;;;;;;4947593;28;20821;-63
2022/04/09 09:09:02;;;;;;;5.03;1.55;;;8.80;99.90;;;;;;4951367;28;20035;-63
2022/04/09 09:11:29;;;;;;;3.58;1.40;;;8.70;99.90;;;;;;4952195;28;20047;-63
2022/04/09 09:13:56;;;;;;;3.83;1.45;;;8.40;99.90;;;;;;4951795;28;20133;-63
2022/04/09 09:16:32;;;;;;;6.95;1.40;;;8.20;99.90;;;;;;4939848;28;20673;-62
2022/04/09 09:19:09;;;;;;;9.27;1.60;;;8.40;99.90;;;;;;4950952;29;20051;-63
2022/04/09 09:21:34;;;;;;;2.97;1.08;;;8.50;99.90;;;;;;4950976;28;20055;-63
2022/04/09 09:24:06;;;;;;;6.88;1.38;;;8.50;99.90;;;;;;4938400;28;20054;-63
2022/04/09 09:26:34;;;;;;;;;;;8.40;99.90;;;;;;4949853;28;20054;-63
2022/04/09 09:28:59;;;;;;;2.58;0.90;;;8.50;99.90;;;;;;4932244;28;19922;-63
2022/04/09 09:31:45;;;;;;;5.70;1.88;;;8.60;99.90;;;;;;4945902;29;20059;-63
2022/04/09 09:34:14;;;;;;;6.35;1.20;;;8.80;99.90;;;;;;4932126;29;20207;-63
2022/04/09 09:36:43;;;;;;;6.25;1.30;;;9.00;99.90;;;;;;4931957;28;20101;-63
2022/04/09 09:39:10;;;;;;;8.32;1.85;;;9.20;99.90;;;;;;4945590;28;20070;-63
2022/04/09 09:41:47;;;;;;;5.50;1.63;;;9.20;99.90;;;;;;4942956;28;20084;-63
2022/04/09 09:44:13;;;;;;;3.45;1.40;;;9.10;99.90;;;;;;4939356;28;20118;-63
2022/04/09 09:46:39;;;;;;;4.63;1.30;;;9.20;99.90;;;;;;4936591;28;20126;-63
2022/04/09 09:49:04;;;;;;;3.45;1.20;;;9.20;99.90;;;;;;4938311;28;20035;-63
2022/04/09 09:51:30;;;;;;;3.67;1.02;;;9.40;99.90;;;;;;4951151;28;20069;-63
2022/04/09 09:54:13;;;;;;;4.07;1.50;;;9.30;99.90;;;;;;4951235;28;20043;-63
2022/04/09 09:56:44;;;;;;;8.13;1.52;;;9.30;99.90;;;;;;4937227;28;20085;-63
2022/04/09 09:59:14;;;;;;;4.20;1.30;;;9.30;99.90;;;;;;4937207;29;20094;-63
2022/04/09 10:01:41;;;;;;;4.15;1.20;;;9.30;99.90;;;;;;4950814;28;20094;-63
2022/04/09 10:04:08;;;;;;;4.25;1.08;;;9.40;99.90;;;;;;4945467;28;20418;-63
2022/04/09 10:06:35;;;;;;;4.88;1.38;;;9.30;99.90;;;;;;4949643;28;20039;-63
2022/04/09 10:09:05;;;;;;;6.70;1.52;;;9.50;99.90;;;;;;4942811;29;20039;-63
2022/04/09 10:11:34;;;;;;;8.18;2.28;;;9.80;99.90;;;;;;4947019;28;20058;-63
2022/04/09 10:14:02;;;;;;;6.80;1.40;;;9.90;99.90;;;;;;4937571;28;20582;-63
2022/04/09 10:16:30;;;;;;;5.97;1.30;;;9.50;99.90;;;;;;4948410;28;20117;-62
2022/04/09 10:19:00;;;;;;;6.95;1.45;;;9.00;99.90;;;;;;4950140;28;20442;-62
2022/04/09 10:21:27;;;;;;;5.40;1.55;;;8.30;99.90;;;;;;4944872;28;20854;-62
2022/04/09 10:23:54;;;;;;;6.47;1.58;;;8.10;99.90;;;;;;4937651;29;20078;-62
2022/04/09 10:26:21;;;;;;;7.95;1.70;;;8.00;99.90;;;;;;4943781;28;20914;-62
2022/04/09 10:28:50;;;;;;;6.05;1.70;;;8.10;99.90;;;;;;4941746;28;20122;-62
2022/04/09 10:31:28;;;;;;;10.88;1.92;;;8.30;99.90;;;;;;4933449;28;20074;-62
2022/04/09 10:34:00;;;;;;;8.18;2.40;;;8.70;99.90;;;;;;4951431;28;20137;-62
2022/04/09 10:36:44;;;;;;;7.68;1.77;;;9.10;99.90;;;;;;4970502;28;20106;-62
2022/04/09 10:39:22;;;;;;;6.13;1.73;;;9.30;99.90;;;;;;4963077;28;20039;-62
2022/04/09 10:41:48;;;;;;;6.75;1.63;;;9.50;99.90;;;;;;4939345;29;20086;-61
2022/04/09 10:44:51;;;;;;;6.60;2.05;;;9.70;99.90;;;;;;4953131;28;20036;-61
2022/04/09 10:47:18;;;;;;;4.15;1.30;;;9.10;99.90;;;;;;4949120;28;20046;-61
2022/04/09 10:50:08;;;;;;;8.38;1.60;;;8.60;99.90;;;;;;4945602;29;20050;-61
2022/04/09 10:52:36;;;;;;;6.63;1.70;;;7.20;99.90;;;;;;4953283;28;20039;-63
2022/04/09 10:55:20;;;;;;;9.80;2.00;;;6.80;99.90;;;;;;4954426;28;20135;-62
2022/04/09 10:57:47;;;;;;;6.55;2.17;;;6.80;99.90;;;;;;4954560;28;20405;-62
2022/04/09 11:00:22;;;;;;;7.32;1.88;;;6.80;99.90;;;;;;4953357;28;20050;-62
2022/04/09 11:03:25;;;;;;;7.60;2.17;;;6.90;99.90;;;;;;4949329;28;20039;-62
2022/04/09 11:05:51;;;;;;;5.18;1.30;;;6.90;99.90;;;;;;4951883;29;20074;-62
2022/04/09 11:08:20;;;;;;;4.47;1.00;;;6.80;99.90;;;;;;4953470;28;20076;-62
2022/04/09 11:10:46;;;;;;;2.88;0.90;;;6.40;99.90;;;;;;4974377;23;20047;-62
2022/04/09 11:13:15;;;;;;;1.95;1.00;;;5.90;99.90;;;;;;4961007;28;20035;-61
2022/04/09 11:23:26;;;;;;;1.70;1.20;;;5.30;99.90;;;;;;4932211;29;20058;-60
2022/04/09 11:28:50;;;;;;;3.47;1.30;;;5.90;99.90;;;;;;5508758;23;20094;-60
2022/04/09 11:31:20;;;;;;;3.60;1.33;;;6.50;99.90;;;;;;4961188;28;20050;-60
2022/04/09 11:33:56;;;;;;;4.10;1.20;;;7.00;99.90;;;;;;4950878;28;20044;-59
2022/04/09 11:36:22;;;;;;;6.30;1.50;;;7.10;99.90;;;;;;4943085;28;20073;-60
2022/04/09 11:38:48;;;;;;;4.43;1.70;;;6.90;99.90;;;;;;4957114;28;20494;-61
2022/04/09 11:41:20;;;;;;;6.28;1.50;;;6.90;99.90;;;;;;4958336;28;20090;-61
2022/04/09 11:43:46;;;;;;;;;;;7.00;99.90;;;;;;4954893;28;20066;-62
2022/04/09 11:49:02;;;;;;;4.80;1.60;;;7.20;99.90;;;;;;4939089;26;20048;-61
2022/04/09 11:51:28;;;;;;;5.32;1.75;;;7.20;99.90;;;;;;4928016;29;20055;-61
2022/04/09 12:04:22;;;;;;;6.82;1.67;;;7.50;99.90;;;;;;4939615;29;20273;-60
2022/04/09 12:06:48;;;;;;;6.15;1.40;;;7.20;99.90;;;;;;4942469;29;20044;-61
2022/04/09 12:09:14;;;;;;;3.05;1.30;;;7.10;99.90;;;;;;4948368;29;20279;-60
2022/04/09 12:19:29;;;;;;;4.20;1.50;;;7.80;99.90;;;;;;5527211;23;20501;-62
2022/04/09 12:22:09;;;;;;;4.38;1.27;;;7.70;99.90;;;;;;4962951;28;20053;-61
2022/04/09 12:24:47;;;;;;;4.60;1.30;;;7.50;99.90;;;;;;4974132;28;20209;-61
2022/04/09 12:27:12;;;;;;;5.63;1.27;;;7.70;99.90;;;;;;4957930;28;20039;-61
2022/04/09 12:32:16;;;;;;;3.58;1.35;;;8.00;99.90;;;;;;5538556;23;20058;-61
2022/04/09 12:34:56;;;;;;;5.50;1.33;;;7.80;99.90;;;;;;4989472;28;20497;-60
2022/04/09 12:37:22;;;;;;;5.60;1.45;;;7.70;99.90;;;;;;4983674;28;20121;-61
2022/04/09 12:39:49;;;;;;;4.75;1.40;;;7.90;99.90;;;;;;4990080;28;20629;-61
2022/04/09 12:42:15;;;;;;;6.85;1.80;;;8.10;99.90;;;;;;4972383;28;20034;-60
2022/04/09 12:44:43;;;;;;;3.85;1.70;;;8.30;99.90;;;;;;4961319;28;20121;-61
2022/04/09 12:49:44;;;;;;;5.68;1.52;;;8.70;99.90;;;;;;5405702;23;20051;-61
2022/04/09 12:52:10;;;;;;;5.88;1.42;;;8.90;99.90;;;;;;4961857;28;20609;-61
2022/04/09 12:54:36;;;;;;;5.03;1.35;;;8.10;99.90;;;;;;4954446;28;20035;-61
2022/04/09 12:57:06;;;;;;;9.73;1.60;;;7.40;99.90;;;;;;4962516;28;20034;-61
2022/04/09 12:59:32;;;;;;;4.57;1.17;;;6.60;99.90;;;;;;4954449;28;20035;-61
2022/04/09 13:01:57;;;;;;;2.33;1.20;;;6.20;99.90;;;;;;4952446;28;20039;-60
2022/04/09 13:04:24;;;;;;;5.03;1.33;;;6.00;99.90;;;;;;4954987;28;20390;-60
2022/04/09 13:06:50;;;;;;;3.00;1.20;;;6.00;99.90;;;;;;4955277;28;20203;-61
2022/04/09 13:09:16;;;;;;;2.50;1.15;;;6.10;99.90;;;;;;4955800;29;20074;-61
2022/04/09 13:14:24;;;;;;;5.50;1.23;;;6.90;99.90;;;;;;5129958;23;20055;-60
2022/04/09 13:16:51;;;;;;;6.97;1.15;;;7.40;99.90;;;;;;4965213;28;20042;-61
2022/04/09 13:21:53;;;;;;;4.43;1.27;;;8.10;99.90;;;;;;5211318;23;20465;-61
2022/04/09 13:24:19;;;;;;;3.78;1.10;;;8.20;99.90;;;;;;4970595;28;20043;-60
2022/04/09 13:26:45;;;;;;;2.30;1.27;;;8.30;99.90;;;;;;4977386;28;20126;-60
2022/04/09 13:29:10;;;;;;;3.83;0.98;;;8.60;99.90;;;;;;4992899;28;20038;-61
2022/04/09 13:31:36;;;;;;;4.95;1.10;;;8.60;99.90;;;;;;4965053;28;20050;-61
2022/04/09 13:34:02;;;;;;;5.10;1.60;;;8.90;99.90;;;;;;4965460;28;20031;-60
2022/04/09 13:36:28;;;;;;;5.95;1.48;;;8.90;99.90;;;;;;4979275;23;20047;-61
2022/04/09 13:38:54;;;;;;;3.08;1.10;;;9.30;99.90;;;;;;4973941;28;20062;-61
2022/04/09 13:41:22;;;;;;;4.47;1.27;;;9.50;99.90;;;;;;4971382;28;20110;-61
2022/04/09 13:43:47;;;;;;;2.42;1.35;;;9.60;99.90;;;;;;4969240;28;20046;-62
2022/04/09 13:46:13;;;;;;;4.68;1.58;;;9.70;99.90;;;;;;4961391;28;20582;-61
2022/04/09 13:48:39;;;;;;;2.35;1.10;;;9.90;99.90;;;;;;4949255;28;20035;-60
2022/04/09 13:51:04;;;;;;;2.10;1.15;;;10.00;99.90;;;;;;4951842;28;20501;-63
2022/04/09 13:53:30;;;;;;;7.38;1.73;;;9.70;99.90;;;;;;4934010;28;20051;-62